Share

Mercedita, PR

City (KPRPONCE1) Elev 36 ft | 18.00 °N, 66.64 °W | Change Station

Current weather conditions updated 2 seconds ago

Partly Cloudy
Partly Cloudy
77.4 °F
Feels Like 79 °F
N
3.1
Wind Variable Wind from NE
Gusts 6.0 mph
Sunrise 6:07 AM
Sunset 6:44 PM
Moon Waning Gibbous

Today is forecast to be Cooler than yesterday. Afternoon showers.

Pressure 30.00 in
Visibility 10.0 miles
Clouds Few 3000 ft
Heat Index 79 °F
Dew Point 68 °F
Humidity 73%
Rainfall 0.00 in
Snow Depth Not available.
UV 0 out of 16
Pollen Not available.
Air Quality Not available.
Flu Activity Local Activity
METAR TJPS 190350Z 00000KT 10SM FEW030 24/19 A3000

More Conditions Fewer Conditions

Pressure 30.00 in
Visibility 10.0 miles
Clouds Few 3000 ft
Heat Index 79 °F
Dew Point 68 °F
Humidity 73%
Rainfall 0.00 in
Snow Depth Not available.
UV 0 out of 16
Pollen Not available.
Air Quality Not available.
Flu Activity Local Activity
METAR TJPS 190350Z 00000KT 10SM FEW030 24/19 A3000

More Conditions Fewer Conditions

10-Day Weather Forecast

Almanac

Astronomy

Apr. 19, 2014 Rise Set
Actual Time 6:07 AM AST 6:44 PM AST
Civil Twilight 5:44 AM AST 7:06 PM AST
Nautical Twilight 5:18 AM AST 7:32 PM AST
Astronomical Twilight 4:52 AM AST 7:58 PM AST
Moon 11:03 PM AST 9:40 AM AST
Length of Visible Light 13h 21m
Length of Day
12h 36m
Tomorrow will be 0m 57s longer.
Waning Gibbous, 83% of the Moon is Illuminated
Today
Waning Gibbous
Apr 22
Last Quarter
Apr 29
New
May 6
First Quarter
May 14
Full

Community

  • Sunset Silhouettes
    Sunset Silhouettes
  • FL sunset Perico Isle
    FL sunset Perico Isle
  • Cloudy spring view
    Cloudy spring view
  • Old barn
    Old barn
  • What's for Lunch?
    What's for Lunch?

WunderPhotos

Upload Photos

1,702,640 photos uploaded!

WunderBlogs® & News

Nearby

Snow Depth

Station Depth Elevation
No new snow has been reported.

Coastal Water Temperatures

Place Temperature
Magueyes Islands, PR 81.0 °F
Yabucoa Harbor, PR 80.1 °F

Earthquake Activity

City Distance Mag. Time & Date
No recent earthquake activity has been reported nearby.
Minimum magnitude displayed is 2.5.

Nearby Weather Stations

Station Location Temp. Heat Index Dew Point Humidity Wind Precip. Elev Updated Type
City, Ponce, PR 77.4 °F 79 °F 68 °F 73% NE  at  3.1 mph 0.00 in / hr 36 ft 12:45 AM AST Rapid Fire

Show More Stations Show Fewer Stations

What do you think?

We're not finished. Please let us know what you like, what you don't like, and what you are still missing.